Terminal Aerodrome Forecast
Issued by NWS Louisville, KY

Home | Current Version | Previous Version | Text Only | Print | Product List | Glossary On
Versions: 1 2 3 4 5 6 7 8 9 10 11 12 13
584
FTUS43 KLMK 211014 AAA
TAFSDF
TAF AMD
KSDF 211014Z 2110/2212 29006KT P6SM FEW012 SCT050 BKN120
      TEMPO 2110/2112 BKN012
     FM211600 29010G16KT P6SM SCT035
     FM220000 VRB04KT P6SM FEW030=

USA.gov is the U.S. government's official web portal to all federal, state and local government web resources and services.